Time;durP1;ratioP1;P1;durP2;ratioP2;P2;SDS_P1;SDS_P2;PMS_P1;PMS_P2;Temp;Humidity;BMP_temperature;BMP_pressure;BME280_temperature;BME280_humidity;BME280_pressure;Samples;Min_cycle;Max_cycle;Signal;HPM_P1;HPM_P2
2021/01/03 00:01:10;;;;;;;27.97;17.03;;;;;;;4.92;100.00;100985.88;4999393;28;20252;-72
2021/01/03 00:03:37;;;;;;;30.67;17.67;;;;;;;4.85;100.00;100984.34;5027768;28;20240;-73
2021/01/03 00:06:06;;;;;;;32.33;18.67;;;;;;;4.77;100.00;100984.66;5026358;28;20221;-73
2021/01/03 00:08:31;;;;;;;33.30;17.80;;;;;;;4.68;100.00;100981.44;5010585;28;20189;-73
2021/01/03 00:10:59;;;;;;;37.17;20.03;;;;;;;4.55;100.00;100983.47;5007452;28;20220;-73
2021/01/03 00:13:25;;;;;;;35.30;19.37;;;;;;;4.69;100.00;100976.91;4984815;28;20189;-73
2021/01/03 00:15:52;;;;;;;38.80;20.57;;;;;;;4.76;100.00;100985.69;5000753;28;20691;-73
2021/01/03 00:18:20;;;;;;;36.50;20.37;;;;;;;4.73;100.00;100986.16;4982992;28;20182;-72
2021/01/03 00:20:48;;;;;;;34.73;20.27;;;;;;;4.79;100.00;100990.63;5017074;28;20230;-72
2021/01/03 00:23:14;;;;;;;36.77;20.30;;;;;;;4.81;100.00;100983.16;4989065;28;20280;-73
2021/01/03 00:25:41;;;;;;;39.00;21.13;;;;;;;4.88;100.00;100994.66;4986799;28;20754;-73
2021/01/03 00:28:09;;;;;;;37.70;19.93;;;;;;;4.81;100.00;100977.78;4992169;28;20252;-73
2021/01/03 00:30:37;;;;;;;37.10;21.47;;;;;;;4.94;100.00;100973.03;4994409;28;20221;-73
2021/01/03 00:33:03;;;;;;;34.87;20.20;;;;;;;4.94;100.00;100978.41;4994477;28;20655;-72
2021/01/03 00:35:30;;;;;;;38.13;20.90;;;;;;;4.89;100.00;100972.06;4993680;28;20251;-72
2021/01/03 00:38:02;;;;;;;36.83;21.17;;;;;;;5.00;100.00;100972.94;5010250;28;20215;-72
2021/01/03 00:40:31;;;;;;;39.87;20.63;;;;;;;4.99;100.00;100973.97;4994711;28;20294;-72
2021/01/03 00:42:59;;;;;;;35.90;20.57;;;;;;;5.00;100.00;100978.31;5010652;28;20738;-72
2021/01/03 00:45:27;;;;;;;35.43;19.20;;;;;;;5.01;100.00;100977.25;5008877;28;20222;-72
2021/01/03 00:47:54;;;;;;;36.60;20.53;;;;;;;4.99;100.00;100987.44;4994851;28;20278;-74
2021/01/03 00:50:19;;;;;;;37.30;21.07;;;;;;;4.95;100.00;100995.41;5009608;28;20212;-73
2021/01/03 00:52:45;;;;;;;37.47;21.53;;;;;;;4.93;100.00;100986.69;4990360;28;20193;-73
2021/01/03 00:55:11;;;;;;;35.90;21.27;;;;;;;4.97;100.00;100989.53;4993776;28;20745;-73
2021/01/03 00:57:37;;;;;;;36.33;20.30;;;;;;;4.97;100.00;100984.16;5029625;28;20208;-73
2021/01/03 01:00:16;;;;;;;38.03;21.20;;;;;;;5.01;100.00;100988.03;5013685;28;20235;-73
2021/01/03 01:02:42;;;;;;;35.73;19.40;;;;;;;5.01;100.00;100979.94;5029233;28;20220;-73
2021/01/03 01:05:08;;;;;;;33.07;18.47;;;;;;;5.00;100.00;100982.91;4996814;28;20185;-73
2021/01/03 01:07:36;;;;;;;35.37;19.97;;;;;;;4.89;100.00;100985.53;4982041;28;20264;-73
2021/01/03 01:10:08;;;;;;;36.30;19.37;;;;;;;4.89;100.00;100996.28;5013601;28;20192;-73
2021/01/03 01:12:36;;;;;;;34.33;19.40;;;;;;;4.77;100.00;100998.91;5015171;28;20216;-73
2021/01/03 01:15:08;;;;;;;38.60;20.20;;;;;;;4.80;100.00;100997.63;4997204;28;20268;-73
2021/01/03 01:17:36;;;;;;;35.57;19.07;;;;;;;4.86;100.00;100996.75;5028961;28;20685;-73
2021/01/03 01:20:05;;;;;;;36.03;20.07;;;;;;;4.86;100.00;100996.75;5029388;28;20222;-74
2021/01/03 01:22:31;;;;;;;32.47;19.13;;;;;;;4.77;100.00;100993.53;5011134;28;20185;-73
2021/01/03 01:24:59;;;;;;;33.87;19.50;;;;;;;4.82;100.00;100996.38;5019456;28;20187;-74
2021/01/03 01:27:24;;;;;;;36.90;19.43;;;;;;;4.84;100.00;101004.22;5031814;28;20594;-73
2021/01/03 01:29:50;;;;;;;34.67;20.20;;;;;;;4.91;100.00;101008.47;5014165;28;20184;-73
2021/01/03 01:32:16;;;;;;;34.93;19.23;;;;;;;4.90;100.00;100997.94;5013067;28;20228;-73
2021/01/03 01:34:44;;;;;;;34.37;20.00;;;;;;;4.86;100.00;101002.13;4992939;28;20633;-74
2021/01/03 01:37:09;;;;;;;38.43;19.77;;;;;;;4.85;100.00;101006.66;5011566;28;20237;-73
2021/01/03 01:39:35;;;;;;;33.87;20.37;;;;;;;4.83;100.00;101007.97;5013362;28;20177;-73
2021/01/03 01:42:01;;;;;;;34.10;19.37;;;;;;;4.82;100.00;101017.91;4996149;28;20721;-73
2021/01/03 01:44:26;;;;;;;34.50;19.67;;;;;;;4.91;100.00;101002.25;4997004;28;20224;-73
2021/01/03 01:46:59;;;;;;;34.30;19.50;;;;;;;4.96;100.00;101008.59;5013233;28;20965;-74
2021/01/03 01:49:27;;;;;;;31.10;19.03;;;;;;;4.90;100.00;101008.69;5013948;28;20208;-73
2021/01/03 01:51:55;;;;;;;32.20;18.97;;;;;;;4.92;100.00;101011.97;4996593;28;20699;-73
2021/01/03 01:54:26;;;;;;;36.87;19.53;;;;;;;4.90;100.00;101011.38;4997686;28;20199;-73
2021/01/03 01:57:05;;;;;;;33.43;19.60;;;;;;;4.94;100.00;101009.88;5027386;28;20307;-73
2021/01/03 01:59:46;;;;;;;36.07;19.70;;;;;;;4.96;99.91;101007.78;5001132;28;20189;-73
2021/01/03 02:02:13;;;;;;;33.87;19.83;;;;;;;4.92;100.00;101010.09;5049044;28;20274;-73
2021/01/03 02:05:02;;;;;;;34.20;19.93;;;;;;;4.84;99.99;101009.63;5016252;28;20188;-73
2021/01/03 02:07:32;;;;;;;33.07;18.83;;;;;;;4.79;100.00;101012.16;5003322;28;20223;-73
2021/01/03 02:10:09;;;;;;;32.70;19.17;;;;;;;4.84;100.00;101009.63;5001043;28;20615;-72
2021/01/03 02:12:37;;;;;;;33.03;20.20;;;;;;;4.67;100.00;101003.19;5050052;28;20270;-73
2021/01/03 02:15:14;;;;;;;35.10;19.53;;;;;;;4.75;100.00;101000.22;5000926;28;20181;-73
2021/01/03 02:17:41;;;;;;;35.60;18.40;;;;;;;4.66;100.00;101006.94;5019121;28;20253;-72
2021/01/03 02:20:15;;;;;;;38.97;18.97;;;;;;;4.67;100.00;101003.19;5001472;28;20208;-73
2021/01/03 02:22:43;;;;;;;34.67;19.47;;;;;;;4.63;100.00;101012.75;5013652;28;20568;-73
2021/01/03 02:25:14;;;;;;;36.83;20.00;;;;;;;4.69;100.00;101003.81;4988039;28;20201;-73
2021/01/03 02:27:47;;;;;;;32.20;19.07;;;;;;;4.55;100.00;101010.38;4997152;28;20212;-72
2021/01/03 02:30:16;;;;;;;33.10;17.80;;;;;;;4.56;100.00;101006.66;5012107;28;20208;-72
2021/01/03 02:32:42;;;;;;;30.67;18.77;;;;;;;4.52;100.00;101010.81;5012350;28;20372;-73
2021/01/03 02:35:11;;;;;;;28.93;18.00;;;;;;;4.51;100.00;101014.56;4978785;28;20182;-73
2021/01/03 02:37:39;;;;;;;32.07;18.37;;;;;;;4.34;100.00;101018.06;4996532;28;20208;-73
2021/01/03 02:40:17;;;;;;;32.57;18.43;;;;;;;4.40;100.00;101020.69;5011494;28;20185;-72
2021/01/03 02:42:45;;;;;;;31.97;18.37;;;;;;;4.50;100.00;101007.53;5012468;28;20177;-73
2021/01/03 02:45:23;;;;;;;31.13;18.20;;;;;;;4.54;99.96;101019.47;4994526;28;20185;-72
2021/01/03 02:47:49;;;;;;;32.73;18.33;;;;;;;4.59;99.90;101017.75;5011039;28;20242;-73
2021/01/03 02:50:18;;;;;;;30.07;17.23;;;;;;;4.53;99.90;101001.72;5011237;28;20260;-73
2021/01/03 02:52:44;;;;;;;32.30;18.40;;;;;;;4.32;100.00;101015.63;4995774;28;20177;-73
2021/01/03 02:55:10;;;;;;;31.37;17.53;;;;;;;4.49;100.00;101022.03;5011067;28;20185;-73
2021/01/03 02:57:35;;;;;;;28.70;16.67;;;;;;;4.26;99.82;101005.72;4998410;28;20208;-73
2021/01/03 03:00:01;;;;;;;28.67;16.00;;;;;;;4.20;100.00;101017.38;5015199;28;20650;-73
2021/01/03 03:02:29;;;;;;;29.77;15.83;;;;;;;4.35;99.72;101001.72;5030710;28;20220;-73
2021/01/03 03:04:55;;;;;;;26.03;16.83;;;;;;;4.54;98.74;101000.66;5032023;28;20430;-73
2021/01/03 03:07:23;;;;;;;26.70;15.87;;;;;;;4.35;98.66;101004.41;5030765;28;20212;-73
2021/01/03 03:09:48;;;;;;;25.47;15.77;;;;;;;4.41;97.47;100998.13;5014843;28;20176;-73
2021/01/03 03:12:14;;;;;;;28.30;16.60;;;;;;;4.18;98.53;101001.72;4997757;28;20235;-73
2021/01/03 03:14:40;;;;;;;23.03;15.13;;;;;;;4.23;98.49;100999.97;5014189;28;20657;-73
2021/01/03 03:17:06;;;;;;;24.33;15.57;;;;;;;4.29;97.87;100989.16;5014169;28;20254;-73
2021/01/03 03:19:32;;;;;;;24.27;15.83;;;;;;;4.26;97.46;100981.53;4998157;28;20590;-72
2021/01/03 03:22:00;;;;;;;25.77;15.77;;;;;;;4.04;98.50;100984.06;5013908;28;20228;-73
2021/01/03 03:24:28;;;;;;;20.93;13.77;;;;;;;4.12;98.55;100978.41;4987043;28;20209;-72
2021/01/03 03:26:57;;;;;;;25.80;15.17;;;;;;;4.08;98.27;100980.72;4997587;28;20225;-73
2021/01/03 03:29:23;;;;;;;20.83;12.90;;;;;;;4.01;98.44;100971.06;4991590;28;20613;-73
2021/01/03 03:31:51;;;;;;;20.43;13.13;;;;;;;3.92;98.30;100975.94;5007210;28;20229;-73
2021/01/03 03:34:17;;;;;;;20.57;12.97;;;;;;;3.84;98.88;100967.31;4991284;28;20189;-72
2021/01/03 03:36:51;;;;;;;22.43;13.60;;;;;;;3.85;98.89;100979.72;5006719;28;20786;-72
2021/01/03 03:39:16;;;;;;;24.00;13.77;;;;;;;3.87;98.85;100967.72;4991504;28;20182;-72
2021/01/03 03:41:42;;;;;;;22.57;14.23;;;;;;;3.88;99.02;100979.25;4990477;28;20240;-72
2021/01/03 03:44:07;;;;;;;22.00;13.83;;;;;;;3.87;98.71;100972.25;4992355;28;20266;-72
2021/01/03 03:46:35;;;;;;;19.00;13.37;;;;;;;3.93;98.54;100971.38;4990439;28;20232;-72
2021/01/03 03:49:03;;;;;;;20.77;12.97;;;;;;;3.97;98.07;100972.56;4991746;28;20200;-73
2021/01/03 03:51:28;;;;;;;20.87;12.93;;;;;;;4.03;97.30;100966.28;4990344;28;20222;-72
2021/01/03 03:53:54;;;;;;;21.30;13.30;;;;;;;4.18;96.48;100970.28;5005174;28;20321;-72
2021/01/03 03:56:20;;;;;;;21.17;13.27;;;;;;;4.04;96.45;100967.97;4990294;28;20225;-72
2021/01/03 03:58:45;;;;;;;20.63;13.03;;;;;;;4.16;95.96;100968.84;4990592;28;20202;-72
2021/01/03 04:01:11;;;;;;;17.07;10.50;;;;;;;4.06;95.71;100980.13;5006510;28;20217;-72
2021/01/03 04:03:36;;;;;;;19.13;12.33;;;;;;;4.10;94.87;100985.88;5007112;28;20185;-72
2021/01/03 04:06:03;;;;;;;20.10;12.60;;;;;;;4.14;94.60;100976.31;5006869;28;20607;-72
2021/01/03 04:08:28;;;;;;;18.63;11.00;;;;;;;4.07;94.99;100972.91;4991169;28;20560;-72
2021/01/03 04:10:54;;;;;;;19.33;11.27;;;;;;;4.01;95.84;100977.28;4990688;28;20257;-72
2021/01/03 04:13:22;;;;;;;17.50;11.70;;;;;;;3.87;95.80;100973.09;4975374;28;20765;-72
2021/01/03 04:15:50;;;;;;;16.70;10.60;;;;;;;3.82;95.17;100973.97;5006284;28;20275;-72
2021/01/03 04:18:16;;;;;;;16.17;10.30;;;;;;;3.81;95.24;100967.78;4990837;28;20613;-72
2021/01/03 04:20:41;;;;;;;16.70;10.53;;;;;;;3.87;94.85;100973.09;5005964;28;20233;-72
2021/01/03 04:23:14;;;;;;;17.50;10.73;;;;;;;3.96;95.12;100970.94;4994599;28;20192;-72
2021/01/03 04:25:40;;;;;;;16.40;10.03;;;;;;;4.02;94.80;100975.41;4977446;28;20228;-72
2021/01/03 04:28:05;;;;;;;16.43;10.20;;;;;;;3.98;94.11;100974.22;5010389;28;20184;-72
2021/01/03 04:30:33;;;;;;;16.53;10.07;;;;;;;3.94;94.02;100976.53;5010858;28;20231;-72
2021/01/03 04:33:01;;;;;;;15.63;9.93;;;;;;;3.96;93.98;100976.31;4994877;28;20188;-72
2021/01/03 04:35:29;;;;;;;16.13;9.97;;;;;;;3.95;94.03;100980.03;4992844;28;20232;-72
2021/01/03 04:37:57;;;;;;;16.27;10.77;;;;;;;4.00;94.20;100977.50;4994978;28;20293;-72
2021/01/03 04:40:28;;;;;;;14.53;10.17;;;;;;;3.79;94.38;100979.78;4994283;28;20231;-72
2021/01/03 04:42:57;;;;;;;17.50;11.10;;;;;;;3.89;95.40;100980.91;4995140;28;20239;-72
2021/01/03 04:45:29;;;;;;;18.00;11.00;;;;;;;3.92;95.18;100985.88;4993759;28;20251;-73
2021/01/03 04:47:58;;;;;;;17.87;11.43;;;;;;;3.86;95.92;100992.09;4995432;28;20643;-73
2021/01/03 04:50:33;;;;;;;18.00;12.03;;;;;;;3.76;96.31;100991.78;5026847;28;20225;-73
2021/01/03 04:53:20;;;;;;;19.73;12.30;;;;;;;3.88;96.57;100990.00;4992500;28;20647;-73
2021/01/03 04:55:48;;;;;;;21.13;13.20;;;;;;;3.76;98.03;100990.97;5025910;28;20256;-73
2021/01/03 04:58:14;;;;;;;22.73;14.10;;;;;;;3.77;98.46;100982.66;4993412;28;20209;-73
2021/01/03 05:00:48;;;;;;;24.30;14.07;;;;;;;3.74;99.35;100988.50;5025664;28;20994;-72
2021/01/03 05:03:37;;;;;;;23.03;13.97;;;;;;;3.74;99.60;100999.25;5026376;28;20246;-72
2021/01/03 05:06:10;;;;;;;23.80;14.87;;;;;;;3.79;99.99;100991.38;4994572;28;20616;-73
2021/01/03 05:08:47;;;;;;;26.40;15.70;;;;;;;3.63;100.00;100986.53;4993948;28;20185;-73
2021/01/03 05:11:20;;;;;;;24.20;14.90;;;;;;;3.70;100.00;100984.63;5011023;28;20236;-72
2021/01/03 05:13:54;;;;;;;26.40;16.63;;;;;;;3.59;100.00;100990.72;5013636;28;20731;-73
2021/01/03 05:16:21;;;;;;;27.53;16.30;;;;;;;3.63;100.00;100986.53;5014138;28;20235;-73
2021/01/03 05:18:47;;;;;;;26.07;16.60;;;;;;;3.65;100.00;100987.13;5013613;28;20173;-72
2021/01/03 05:21:13;;;;;;;27.77;16.30;;;;;;;3.63;100.00;100991.91;5029108;28;20740;-72
2021/01/03 05:23:39;;;;;;;26.23;17.30;;;;;;;3.76;100.00;100999.84;4993838;28;20204;-72
2021/01/03 05:26:07;;;;;;;31.93;17.93;;;;;;;3.63;100.00;100999.97;5010873;28;20243;-73
2021/01/03 05:28:34;;;;;;;28.40;17.33;;;;;;;3.70;100.00;101003.41;5014389;28;20191;-73
2021/01/03 05:31:14;;;;;;;28.33;17.40;;;;;;;3.61;100.00;100985.94;5028939;28;20233;-73
2021/01/03 05:33:54;;;;;;;26.67;17.80;;;;;;;3.50;100.00;100980.47;5013523;28;20189;-73
2021/01/03 05:36:35;;;;;;;29.87;17.10;;;;;;;3.42;100.00;100982.59;5013791;28;20271;-72
2021/01/03 05:39:04;;;;;;;33.33;17.87;;;;;;;3.47;100.00;100986.25;5013052;28;20196;-72
2021/01/03 05:41:44;;;;;;;29.17;17.00;;;;;;;3.63;100.00;100988.41;4996435;28;20297;-73
2021/01/03 05:44:16;;;;;;;28.67;16.03;;;;;;;3.71;100.00;101005.03;5028763;28;20487;-72
2021/01/03 05:46:45;;;;;;;28.60;17.03;;;;;;;3.70;100.00;101003.41;5012627;28;20217;-73
2021/01/03 05:49:21;;;;;;;31.57;17.93;;;;;;;3.62;100.00;101002.84;4997200;28;20528;-73
2021/01/03 05:51:49;;;;;;;29.27;17.33;;;;;;;3.64;100.00;101004.28;4979802;28;20224;-72
2021/01/03 05:54:19;;;;;;;29.53;16.83;;;;;;;3.68;100.00;101010.88;4996057;28;20189;-72
2021/01/03 05:56:45;;;;;;;30.70;17.93;;;;;;;3.61;100.00;101009.28;5025206;28;20239;-73
2021/01/03 05:59:17;;;;;;;31.20;17.27;;;;;;;3.64;100.00;101009.63;5032389;28;20176;-73
2021/01/03 06:01:49;;;;;;;29.47;16.97;;;;;;;3.55;100.00;101019.03;5016566;28;20231;-72
2021/01/03 06:04:24;;;;;;;31.07;16.83;;;;;;;3.56;100.00;101012.59;4999738;28;20188;-72
2021/01/03 06:06:49;;;;;;;27.43;16.13;;;;;;;3.69;100.00;101012.50;5015442;28;20216;-73
2021/01/03 06:09:18;;;;;;;30.23;17.83;;;;;;;3.69;100.00;101017.06;5048791;28;20185;-73
2021/01/03 06:11:59;;;;;;;28.10;16.50;;;;;;;3.70;100.00;101014.16;5000478;28;20224;-73
2021/01/03 06:14:25;;;;;;;28.60;16.33;;;;;;;3.72;100.00;101014.75;5015699;28;20181;-73
2021/01/03 06:16:51;;;;;;;28.43;16.87;;;;;;;3.67;100.00;101019.97;5015410;28;20224;-72
2021/01/03 06:19:51;;;;;;;28.97;16.77;;;;;;;3.69;100.00;101017.88;5048664;28;20185;-73
2021/01/03 06:22:38;;;;;;;26.83;16.03;;;;;;;3.63;100.00;101024.13;5014709;28;20604;-73
2021/01/03 06:25:33;;;;;;;26.70;15.53;;;;;;;3.67;100.00;101016.47;5022139;28;20180;-72
2021/01/03 06:28:05;;;;;;;26.60;15.57;;;;;;;3.57;100.00;101025.00;5029458;28;20258;-73
2021/01/03 06:30:32;;;;;;;26.07;13.40;;;;;;;3.71;100.00;101023.84;4998798;28;20231;-72
2021/01/03 06:33:16;;;;;;;27.53;15.83;;;;;;;3.76;100.00;101021.34;5000103;28;20267;-72
2021/01/03 06:35:53;;;;;;;24.27;14.87;;;;;;;3.83;100.00;101030.16;5047341;28;20247;-72
2021/01/03 06:38:56;;;;;;;26.00;14.43;;;;;;;3.78;100.00;101030.00;5016375;28;20283;-74
2021/01/03 06:41:24;;;;;;;24.90;14.80;;;;;;;3.77;100.00;101031.00;5047728;28;20224;-72
2021/01/03 06:44:14;;;;;;;24.97;14.33;;;;;;;3.82;100.00;101034.69;5015829;28;20184;-72
2021/01/03 06:47:19;;;;;;;26.03;14.50;;;;;;;3.77;100.00;101030.22;5031362;28;20756;-72
2021/01/03 06:50:23;;;;;;;25.87;13.90;;;;;;;3.79;100.00;101028.97;5032795;28;20279;-73
2021/01/03 06:52:54;;;;;;;28.07;13.97;;;;;;;3.85;100.00;101028.06;4975506;28;20230;-72
2021/01/03 06:55:52;;;;;;;25.30;14.17;;;;;;;3.80;100.00;101025.22;5011565;28;20193;-72
2021/01/03 06:58:31;;;;;;;22.93;13.90;;;;;;;3.78;100.00;101024.63;5044626;28;20216;-72
2021/01/03 07:01:00;;;;;;;24.67;13.53;;;;;;;3.80;100.00;101030.59;5027086;28;20755;-72
2021/01/03 07:03:28;;;;;;;26.10;12.73;;;;;;;3.88;100.00;101030.31;5011273;28;20211;-72
2021/01/03 07:06:01;;;;;;;24.60;13.67;;;;;;;3.82;100.00;101029.31;5010326;28;20311;-72
2021/01/03 07:08:29;;;;;;;23.67;13.17;;;;;;;3.89;100.00;101023.91;5027578;28;20227;-72
2021/01/03 07:10:55;;;;;;;25.47;14.30;;;;;;;3.85;100.00;101017.34;5010790;28;20239;-72
2021/01/03 07:13:29;;;;;;;23.83;14.30;;;;;;;3.83;100.00;101019.41;5011640;28;20256;-72
2021/01/03 07:16:04;;;;;;;25.87;14.47;;;;;;;3.85;100.00;101025.41;5011618;28;20286;-72
2021/01/03 07:18:48;;;;;;;26.80;13.40;;;;;;;3.90;100.00;101020.16;5010549;28;20591;-72
2021/01/03 07:21:20;;;;;;;24.10;13.97;;;;;;;3.69;100.00;101017.88;5008532;28;20244;-72
2021/01/03 07:23:49;;;;;;;23.13;13.00;;;;;;;3.83;100.00;101025.59;5011314;28;20263;-72
2021/01/03 07:26:27;;;;;;;20.67;11.93;;;;;;;3.85;100.00;101022.72;4985769;28;20335;-72
2021/01/03 07:28:59;;;;;;;22.57;12.80;;;;;;;3.75;100.00;101017.00;5027573;28;20189;-72
2021/01/03 07:31:43;;;;;;;23.50;12.77;;;;;;;3.80;100.00;101022.53;5011672;28;20653;-72
2021/01/03 07:34:31;;;;;;;24.47;13.07;;;;;;;3.80;100.00;101019.03;5010622;28;20575;-74
2021/01/03 07:37:00;;;;;;;24.60;13.27;;;;;;;3.81;100.00;101021.50;5010305;28;20229;-72
2021/01/03 07:39:29;;;;;;;21.07;12.20;;;;;;;3.78;100.00;101027.31;4995070;28;20196;-72
2021/01/03 07:42:15;;;;;;;20.60;11.70;;;;;;;3.80;100.00;101019.84;4993878;28;20737;-72
2021/01/03 07:44:45;;;;;;;22.17;11.33;;;;;;;3.92;100.00;101023.47;5026963;28;20272;-72
2021/01/03 07:47:32;;;;;;;21.27;11.50;;;;;;;3.74;100.00;101014.53;4994594;28;20320;-73
2021/01/03 07:50:20;;;;;;;20.70;11.33;;;;;;;3.77;100.00;101020.28;5010947;28;20189;-72
2021/01/03 07:52:53;;;;;;;17.87;10.27;;;;;;;3.81;100.00;101024.19;5010340;28;20248;-73
2021/01/03 07:55:28;;;;;;;18.67;11.13;;;;;;;3.71;100.00;101023.84;5011666;28;20188;-73
2021/01/03 07:58:10;;;;;;;18.10;11.37;;;;;;;3.74;100.00;101026.09;5046945;28;20739;-72
2021/01/03 08:00:40;;;;;;;18.53;10.33;;;;;;;3.95;100.00;101028.38;4997254;28;20249;-73
2021/01/03 08:03:19;;;;;;;19.33;10.87;;;;;;;3.95;100.00;101028.38;4998880;28;20187;-72
2021/01/03 08:05:45;;;;;;;20.17;11.17;;;;;;;3.91;100.00;101028.00;5030201;28;20224;-72
2021/01/03 08:08:19;;;;;;;16.67;9.63;;;;;;;3.91;100.00;101032.56;5014785;28;20180;-73
2021/01/03 08:10:45;;;;;;;15.93;9.30;;;;;;;3.88;100.00;101025.78;4981187;28;20323;-73
2021/01/03 08:13:26;;;;;;;18.27;8.97;;;;;;;3.89;100.00;101032.78;5014449;28;20570;-73
2021/01/03 08:15:58;;;;;;;13.13;8.37;;;;;;;3.82;100.00;101033.88;4982455;28;20306;-72
2021/01/03 08:18:24;;;;;;;15.07;8.23;;;;;;;3.78;100.00;101035.38;4999102;28;20722;-72
2021/01/03 08:20:52;;;;;;;13.93;8.50;;;;;;;3.84;100.00;101037.16;5014275;28;20224;-72
2021/01/03 08:23:19;;;;;;;12.60;7.77;;;;;;;3.88;100.00;101044.59;5025369;28;20238;-72
2021/01/03 08:25:45;;;;;;;11.73;7.37;;;;;;;3.95;100.00;101041.81;5020606;28;20227;-72
2021/01/03 08:28:22;;;;;;;13.87;7.90;;;;;;;3.98;100.00;101041.41;5013983;28;20554;-72
2021/01/03 08:30:50;;;;;;;11.93;7.57;;;;;;;3.94;100.00;101056.31;4997201;28;20219;-72
2021/01/03 08:33:24;;;;;;;11.77;6.73;;;;;;;3.87;100.00;101042.09;5013801;28;20179;-72
2021/01/03 08:35:52;;;;;;;10.90;7.20;;;;;;;3.94;100.00;101042.88;4996287;28;20250;-72
2021/01/03 08:38:24;;;;;;;12.43;7.20;;;;;;;4.02;100.00;101039.91;4998084;28;20247;-73
2021/01/03 08:40:52;;;;;;;11.23;6.90;;;;;;;4.04;99.78;101043.19;5013665;28;20227;-72
2021/01/03 08:43:23;;;;;;;11.13;6.33;;;;;;;3.95;99.56;101047.19;5029719;28;20646;-72
2021/01/03 08:45:49;;;;;;;9.27;6.60;;;;;;;3.92;100.00;101040.41;4981769;28;20226;-71
2021/01/03 08:48:23;;;;;;;11.83;7.00;;;;;;;4.00;99.92;101042.00;4974216;28;20191;-72
2021/01/03 08:51:07;;;;;;;8.17;5.60;;;;;;;3.91;98.78;101052.19;4974417;28;20234;-73
2021/01/03 08:53:33;;;;;;;9.80;5.93;;;;;;;4.02;98.62;101046.09;4962235;28;20381;-73
2021/01/03 08:56:12;;;;;;;10.13;6.40;;;;;;;3.91;98.69;101054.88;4992368;28;20319;-72
2021/01/03 08:58:40;;;;;;;10.20;6.57;;;;;;;3.93;98.47;101046.59;4994631;28;20217;-72
2021/01/03 09:01:16;;;;;;;9.50;6.60;;;;;;;4.05;98.25;101050.22;4977553;28;20236;-72
2021/01/03 09:03:42;;;;;;;10.00;6.33;;;;;;;3.97;98.31;101053.16;4959859;28;20244;-73
2021/01/03 09:06:08;;;;;;;10.07;6.10;;;;;;;3.98;98.13;101046.75;4972457;28;20221;-73
2021/01/03 09:08:36;;;;;;;10.73;6.80;;;;;;;4.13;97.67;101052.63;4978104;28;20265;-73
2021/01/03 09:11:08;;;;;;;10.53;7.03;;;;;;;4.04;97.94;101054.75;4963665;28;20703;-73
2021/01/03 09:13:34;;;;;;;10.83;6.80;;;;;;;3.95;97.29;101049.88;5014640;28;20647;-73
2021/01/03 09:16:14;;;;;;;11.07;7.07;;;;;;;4.10;97.32;101042.31;4980163;28;20252;-72
2021/01/03 09:18:45;;;;;;;10.50;6.80;;;;;;;4.19;97.00;101057.09;4999724;28;20213;-73
2021/01/03 09:21:13;;;;;;;10.73;6.63;;;;;;;4.20;96.37;101053.38;5013529;28;20241;-72
2021/01/03 09:23:43;;;;;;;14.10;8.00;;;;;;;4.33;96.38;101065.63;5012900;28;20212;-72
2021/01/03 09:26:09;;;;;;;12.20;7.57;;;;;;;4.29;96.64;101059.06;4979581;28;20235;-72
2021/01/03 09:28:40;;;;;;;9.47;6.33;;;;;;;4.21;95.91;101059.38;4976053;28;20175;-73
2021/01/03 09:31:18;;;;;;;12.23;7.57;;;;;;;4.19;96.23;101057.09;4991225;28;20762;-74
2021/01/03 09:33:56;;;;;;;10.23;6.30;;;;;;;4.27;96.23;101060.34;5007399;28;20627;-73
2021/01/03 09:36:40;;;;;;;11.23;7.53;;;;;;;4.33;95.61;101057.56;4978378;28;20232;-72
2021/01/03 09:39:16;;;;;;;10.30;6.13;;;;;;;4.43;95.06;101063.28;4994208;28;20181;-73
2021/01/03 09:41:47;;;;;;;11.27;7.73;;;;;;;4.35;94.49;101052.78;4992971;28;20699;-74
2021/01/03 09:44:53;;;;;;;9.40;6.33;;;;;;;4.17;94.08;101056.50;4993408;28;20187;-72
2021/01/03 09:47:19;;;;;;;10.43;5.97;;;;;;;4.25;94.38;101049.00;4994507;28;20303;-73
2021/01/03 09:49:55;;;;;;;9.17;5.73;;;;;;;4.13;94.39;101047.25;4993685;28;20193;-73
2021/01/03 09:52:27;;;;;;;8.13;5.93;;;;;;;4.14;94.41;101047.03;4992943;28;20691;-73
2021/01/03 09:55:01;;;;;;;8.47;6.50;;;;;;;4.04;94.25;101045.88;5008876;28;20189;-73
2021/01/03 09:57:39;;;;;;;7.87;5.40;;;;;;;4.10;93.47;101048.50;5009061;28;20715;-72
2021/01/03 10:00:09;;;;;;;8.30;6.20;;;;;;;4.18;93.85;101047.41;5009511;28;20185;-72
2021/01/03 10:02:35;;;;;;;9.53;6.73;;;;;;;4.19;93.85;101047.16;4968980;28;20246;-73
2021/01/03 10:05:05;;;;;;;7.87;5.97;;;;;;;4.15;93.85;101040.59;4977138;28;20178;-73
2021/01/03 10:07:33;;;;;;;9.37;6.03;;;;;;;4.14;93.65;101040.81;4961413;28;20216;-73
2021/01/03 10:10:07;;;;;;;7.30;5.00;;;;;;;4.26;93.37;101043.38;4961401;28;20231;-72
2021/01/03 10:12:37;;;;;;;8.77;5.60;;;;;;;4.28;93.55;101035.09;4978076;28;20229;-74
2021/01/03 10:15:05;;;;;;;7.70;6.00;;;;;;;4.10;92.40;101042.31;4961130;28;20193;-72
2021/01/03 10:17:31;;;;;;;8.97;5.47;;;;;;;4.00;93.24;101036.63;4993137;28;20229;-73
2021/01/03 10:19:57;;;;;;;6.87;4.80;;;;;;;4.02;92.83;101040.72;4993445;28;20185;-75
2021/01/03 10:22:41;;;;;;;8.43;5.73;;;;;;;4.03;93.41;101046.91;4992513;28;20233;-74
2021/01/03 10:25:10;;;;;;;7.53;5.70;;;;;;;4.03;93.74;101045.06;4992474;28;20194;-73
2021/01/03 10:27:36;;;;;;;8.67;5.70;;;;;;;3.93;93.23;101035.84;4993465;28;20609;-74
2021/01/03 10:30:08;;;;;;;6.37;5.33;;;;;;;3.85;93.50;101039.63;4993181;28;20189;-72
2021/01/03 10:32:35;;;;;;;6.87;5.10;;;;;;;3.78;93.61;101043.41;5005553;28;20282;-73
2021/01/03 10:35:03;;;;;;;7.97;5.40;;;;;;;3.88;93.83;101038.38;5002645;28;20201;-74
2021/01/03 10:37:29;;;;;;;6.90;5.60;;;;;;;3.88;93.99;101043.72;4994575;28;20220;-72
2021/01/03 10:39:54;;;;;;;8.93;5.47;;;;;;;3.98;93.95;101038.72;5011807;28;20192;-74
2021/01/03 10:42:23;;;;;;;6.70;4.33;;;;;;;4.05;93.19;101031.41;4995958;28;20228;-73
2021/01/03 10:44:49;;;;;;;7.27;5.63;;;;;;;3.98;93.00;101044.09;4992301;28;20195;-74
2021/01/03 10:47:15;;;;;;;6.57;5.27;;;;;;;3.97;92.82;101037.03;5011161;28;20212;-74
2021/01/03 10:49:45;;;;;;;7.00;4.83;;;;;;;3.82;92.37;101027.69;5011488;28;20198;-74
2021/01/03 10:52:11;;;;;;;7.20;4.67;;;;;;;3.90;92.93;101036.28;4987161;28;20711;-73
2021/01/03 10:54:36;;;;;;;6.83;4.77;;;;;;;3.83;92.96;101030.16;5021837;28;20180;-74
2021/01/03 10:57:05;;;;;;;5.30;4.10;;;;;;;3.92;91.32;101040.41;4993413;28;20252;-71
2021/01/03 10:59:30;;;;;;;4.67;3.73;;;;;;;3.97;91.15;101042.41;4986090;28;20208;-72
2021/01/03 11:01:56;;;;;;;5.37;4.17;;;;;;;3.89;91.28;101034.66;5006264;28;20213;-72
2021/01/03 11:04:23;;;;;;;6.07;4.63;;;;;;;4.08;90.50;101031.75;5027462;28;20572;-72
2021/01/03 11:06:53;;;;;;;5.00;4.23;;;;;;;4.10;90.83;101020.81;4986793;28;20279;-72
2021/01/03 11:09:25;;;;;;;6.53;4.73;;;;;;;4.17;90.66;101010.81;4998322;28;20211;-72
2021/01/03 11:12:07;;;;;;;5.93;4.10;;;;;;;4.05;90.63;101017.97;4992341;28;20231;-72
2021/01/03 11:14:33;;;;;;;6.33;4.60;;;;;;;4.05;91.00;101015.28;4994729;28;20189;-72
2021/01/03 11:16:59;;;;;;;6.30;4.87;;;;;;;4.12;90.95;101014.19;5010171;28;20290;-73
2021/01/03 11:19:25;;;;;;;4.73;4.03;;;;;;;4.04;91.06;101006.38;5011249;28;20814;-74
2021/01/03 11:21:57;;;;;;;5.47;4.27;;;;;;;4.19;91.34;101001.47;5003094;28;20244;-74
2021/01/03 11:24:25;;;;;;;5.47;4.40;;;;;;;4.26;90.64;100999.53;5005969;28;20215;-73
2021/01/03 11:26:51;;;;;;;5.90;4.33;;;;;;;4.11;91.37;101006.34;5010615;28;20236;-72
2021/01/03 11:29:19;;;;;;;4.83;4.10;;;;;;;4.15;90.53;101002.97;5011026;28;20197;-72
2021/01/03 11:31:49;;;;;;;5.47;4.40;;;;;;;4.15;90.70;100994.91;4975261;28;20230;-73
2021/01/03 11:34:18;;;;;;;5.83;4.50;;;;;;;4.12;91.10;100989.16;4990706;28;20213;-73